sensor_id;sensor_type;location;lat;lon;timestamp;temperature;humidity
75088;HTU21D;63664;44.868;40.600;2023-03-26T00:01:22;11.72;96.49
75088;HTU21D;63664;44.868;40.600;2023-03-26T00:03:50;11.72;96.49
75088;HTU21D;63664;44.868;40.600;2023-03-26T00:06:26;11.71;96.58
75088;HTU21D;63664;44.868;40.600;2023-03-26T00:08:55;11.69;96.65
75088;HTU21D;63664;44.868;40.600;2023-03-26T00:11:24;11.68;96.68
75088;HTU21D;63664;44.868;40.600;2023-03-26T00:13:52;11.67;96.72
75088;HTU21D;63664;44.868;40.600;2023-03-26T00:16:23;11.62;96.81
75088;HTU21D;63664;44.868;40.600;2023-03-26T00:18:49;11.60;96.84
75088;HTU21D;63664;44.868;40.600;2023-03-26T00:21:19;11.58;96.94
75088;HTU21D;63664;44.868;40.600;2023-03-26T00:23:48;11.57;96.95
75088;HTU21D;63664;44.868;40.600;2023-03-26T00:26:15;11.55;97.03
75088;HTU21D;63664;44.868;40.600;2023-03-26T00:28:42;11.54;97.03
75088;HTU21D;63664;44.868;40.600;2023-03-26T00:31:12;11.53;97.13
75088;HTU21D;63664;44.868;40.600;2023-03-26T00:33:40;11.51;97.16
75088;HTU21D;63664;44.868;40.600;2023-03-26T00:36:14;11.49;97.30
75088;HTU21D;63664;44.868;40.600;2023-03-26T00:38:43;11.49;97.35
75088;HTU21D;63664;44.868;40.600;2023-03-26T00:41:14;11.49;97.42
75088;HTU21D;63664;44.868;40.600;2023-03-26T00:43:52;11.48;97.50
75088;HTU21D;63664;44.868;40.600;2023-03-26T00:46:24;11.49;97.58
75088;HTU21D;63664;44.868;40.600;2023-03-26T00:48:53;11.49;97.67
75088;HTU21D;63664;44.868;40.600;2023-03-26T00:51:23;11.49;97.71
75088;HTU21D;63664;44.868;40.600;2023-03-26T00:53:50;11.51;97.78
75088;HTU21D;63664;44.868;40.600;2023-03-26T00:56:19;11.52;97.85
75088;HTU21D;63664;44.868;40.600;2023-03-26T00:58:48;11.53;97.90
75088;HTU21D;63664;44.868;40.600;2023-03-26T01:01:18;11.52;97.90
75088;HTU21D;63664;44.868;40.600;2023-03-26T01:03:57;11.52;97.95
75088;HTU21D;63664;44.868;40.600;2023-03-26T01:06:33;11.53;98.01
75088;HTU21D;63664;44.868;40.600;2023-03-26T01:09:10;11.52;98.01
75088;HTU21D;63664;44.868;40.600;2023-03-26T01:11:41;11.52;98.09
75088;HTU21D;63664;44.868;40.600;2023-03-26T01:14:16;11.51;98.16
75088;HTU21D;63664;44.868;40.600;2023-03-26T01:16:56;11.51;98.19
75088;HTU21D;63664;44.868;40.600;2023-03-26T01:19:35;11.49;98.29
75088;HTU21D;63664;44.868;40.600;2023-03-26T01:22:08;11.48;98.29
75088;HTU21D;63664;44.868;40.600;2023-03-26T01:24:39;11.48;98.33
75088;HTU21D;63664;44.868;40.600;2023-03-26T01:27:26;11.47;98.48
75088;HTU21D;63664;44.868;40.600;2023-03-26T01:33:26;11.45;98.55
75088;HTU21D;63664;44.868;40.600;2023-03-26T01:36:10;11.45;98.55
75088;HTU21D;63664;44.868;40.600;2023-03-26T01:39:27;11.43;98.67
75088;HTU21D;63664;44.868;40.600;2023-03-26T01:42:11;11.43;98.63
75088;HTU21D;63664;44.868;40.600;2023-03-26T01:45:12;11.41;98.78
75088;HTU21D;63664;44.868;40.600;2023-03-26T01:47:42;11.41;98.75
75088;HTU21D;63664;44.868;40.600;2023-03-26T01:50:09;11.40;98.89
75088;HTU21D;63664;44.868;40.600;2023-03-26T01:52:37;11.38;99.01
75088;HTU21D;63664;44.868;40.600;2023-03-26T01:55:04;11.37;99.09
75088;HTU21D;63664;44.868;40.600;2023-03-26T01:57:36;11.38;99.22
75088;HTU21D;63664;44.868;40.600;2023-03-26T02:00:26;11.36;99.38
75088;HTU21D;63664;44.868;40.600;2023-03-26T02:03:15;11.34;99.35
75088;HTU21D;63664;44.868;40.600;2023-03-26T02:08:35;11.33;99.54
75088;HTU21D;63664;44.868;40.600;2023-03-26T02:11:12;11.31;99.64
75088;HTU21D;63664;44.868;40.600;2023-03-26T02:13:42;11.30;99.75
75088;HTU21D;63664;44.868;40.600;2023-03-26T02:16:11;11.29;99.89
75088;HTU21D;63664;44.868;40.600;2023-03-26T02:18:43;11.29;99.94
75088;HTU21D;63664;44.868;40.600;2023-03-26T02:21:16;11.28;100.07
75088;HTU21D;63664;44.868;40.600;2023-03-26T02:23:51;11.28;100.11
75088;HTU21D;63664;44.868;40.600;2023-03-26T02:26:24;11.30;100.21
75088;HTU21D;63664;44.868;40.600;2023-03-26T02:28:57;11.31;100.25
75088;HTU21D;63664;44.868;40.600;2023-03-26T02:31:26;11.32;100.32
75088;HTU21D;63664;44.868;40.600;2023-03-26T02:33:53;11.32;100.38
75088;HTU21D;63664;44.868;40.600;2023-03-26T02:36:24;11.33;100.48
75088;HTU21D;63664;44.868;40.600;2023-03-26T02:39:00;11.33;100.55
75088;HTU21D;63664;44.868;40.600;2023-03-26T02:41:29;11.32;100.63
75088;HTU21D;63664;44.868;40.600;2023-03-26T02:44:00;11.33;100.71
75088;HTU21D;63664;44.868;40.600;2023-03-26T02:46:45;11.34;100.74
75088;HTU21D;63664;44.868;40.600;2023-03-26T02:49:32;11.36;100.78
75088;HTU21D;63664;44.868;40.600;2023-03-26T02:52:00;11.36;100.93
75088;HTU21D;63664;44.868;40.600;2023-03-26T02:54:35;11.37;100.96
75088;HTU21D;63664;44.868;40.600;2023-03-26T02:57:23;11.36;100.99
75088;HTU21D;63664;44.868;40.600;2023-03-26T02:59:58;11.37;101.06
75088;HTU21D;63664;44.868;40.600;2023-03-26T03:02:37;11.36;101.13
75088;HTU21D;63664;44.868;40.600;2023-03-26T03:05:27;11.37;101.19
75088;HTU21D;63664;44.868;40.600;2023-03-26T03:08:14;11.36;101.25
75088;HTU21D;63664;44.868;40.600;2023-03-26T03:11:13;11.34;101.31
75088;HTU21D;63664;44.868;40.600;2023-03-26T03:13:44;11.34;101.39
75088;HTU21D;63664;44.868;40.600;2023-03-26T03:16:16;11.32;101.56
75088;HTU21D;63664;44.868;40.600;2023-03-26T03:18:45;11.32;101.74
75088;HTU21D;63664;44.868;40.600;2023-03-26T03:21:27;11.32;101.71
75088;HTU21D;63664;44.868;40.600;2023-03-26T03:23:58;11.30;101.86
75088;HTU21D;63664;44.868;40.600;2023-03-26T03:26:26;11.30;101.94
75088;HTU21D;63664;44.868;40.600;2023-03-26T03:28:56;11.31;101.99
75088;HTU21D;63664;44.868;40.600;2023-03-26T03:31:24;11.31;102.06
75088;HTU21D;63664;44.868;40.600;2023-03-26T03:33:54;11.31;102.10
75088;HTU21D;63664;44.868;40.600;2023-03-26T03:36:29;11.33;102.14
75088;HTU21D;63664;44.868;40.600;2023-03-26T03:39:07;11.34;102.15
75088;HTU21D;63664;44.868;40.600;2023-03-26T03:41:37;11.36;102.23
75088;HTU21D;63664;44.868;40.600;2023-03-26T03:44:11;11.34;102.33
75088;HTU21D;63664;44.868;40.600;2023-03-26T03:46:38;11.33;102.36
75088;HTU21D;63664;44.868;40.600;2023-03-26T03:49:07;11.32;102.44
75088;HTU21D;63664;44.868;40.600;2023-03-26T03:51:37;11.31;102.54
75088;HTU21D;63664;44.868;40.600;2023-03-26T03:54:17;11.33;102.61
75088;HTU21D;63664;44.868;40.600;2023-03-26T03:56:44;11.32;102.63
75088;HTU21D;63664;44.868;40.600;2023-03-26T03:59:35;11.32;102.63
75088;HTU21D;63664;44.868;40.600;2023-03-26T04:02:08;11.33;102.63
75088;HTU21D;63664;44.868;40.600;2023-03-26T04:04:41;11.33;102.69
75088;HTU21D;63664;44.868;40.600;2023-03-26T04:07:14;11.31;102.77
75088;HTU21D;63664;44.868;40.600;2023-03-26T04:10:06;11.32;102.79
75088;HTU21D;63664;44.868;40.600;2023-03-26T04:13:02;11.31;102.79
75088;HTU21D;63664;44.868;40.600;2023-03-26T04:15:57;11.32;102.79
75088;HTU21D;63664;44.868;40.600;2023-03-26T04:18:26;11.32;102.89
75088;HTU21D;63664;44.868;40.600;2023-03-26T04:20:54;11.33;102.95
75088;HTU21D;63664;44.868;40.600;2023-03-26T04:23:28;11.31;103.05
75088;HTU21D;63664;44.868;40.600;2023-03-26T04:26:34;11.32;102.99
75088;HTU21D;63664;44.868;40.600;2023-03-26T04:29:11;11.33;103.01
75088;HTU21D;63664;44.868;40.600;2023-03-26T04:31:45;11.34;103.09
75088;HTU21D;63664;44.868;40.600;2023-03-26T04:34:19;11.34;102.97
75088;HTU21D;63664;44.868;40.600;2023-03-26T04:40:12;11.29;102.92
75088;HTU21D;63664;44.868;40.600;2023-03-26T04:42:51;11.30;103.00
75088;HTU21D;63664;44.868;40.600;2023-03-26T04:45:37;11.31;103.07
75088;HTU21D;63664;44.868;40.600;2023-03-26T04:48:07;11.32;103.18
75088;HTU21D;63664;44.868;40.600;2023-03-26T04:50:44;11.33;103.21
75088;HTU21D;63664;44.868;40.600;2023-03-26T04:53:15;11.38;103.27
75088;HTU21D;63664;44.868;40.600;2023-03-26T04:56:20;11.40;103.20
75088;HTU21D;63664;44.868;40.600;2023-03-26T04:59:23;11.41;103.15
75088;HTU21D;63664;44.868;40.600;2023-03-26T05:01:53;11.42;103.18
75088;HTU21D;63664;44.868;40.600;2023-03-26T05:04:28;11.43;103.33
75088;HTU21D;63664;44.868;40.600;2023-03-26T05:06:57;11.44;103.31
75088;HTU21D;63664;44.868;40.600;2023-03-26T05:09:32;11.44;103.39
75088;HTU21D;63664;44.868;40.600;2023-03-26T05:12:22;11.46;103.45
75088;HTU21D;63664;44.868;40.600;2023-03-26T05:15:12;11.45;103.52
75088;HTU21D;63664;44.868;40.600;2023-03-26T05:18:02;11.46;103.47
75088;HTU21D;63664;44.868;40.600;2023-03-26T05:20:43;11.47;103.54
75088;HTU21D;63664;44.868;40.600;2023-03-26T05:23:11;11.46;103.58
75088;HTU21D;63664;44.868;40.600;2023-03-26T05:25:44;11.48;103.63
75088;HTU21D;63664;44.868;40.600;2023-03-26T05:28:16;11.51;103.69
75088;HTU21D;63664;44.868;40.600;2023-03-26T05:31:03;11.53;103.66
75088;HTU21D;63664;44.868;40.600;2023-03-26T05:33:38;11.53;103.68
75088;HTU21D;63664;44.868;40.600;2023-03-26T05:36:12;11.53;103.73
75088;HTU21D;63664;44.868;40.600;2023-03-26T05:38:45;11.55;103.70
75088;HTU21D;63664;44.868;40.600;2023-03-26T05:41:37;11.53;103.71
75088;HTU21D;63664;44.868;40.600;2023-03-26T05:44:05;11.53;103.80
75088;HTU21D;63664;44.868;40.600;2023-03-26T05:46:32;11.54;103.89
75088;HTU21D;63664;44.868;40.600;2023-03-26T05:49:04;11.55;103.96
75088;HTU21D;63664;44.868;40.600;2023-03-26T05:51:39;11.54;103.92
75088;HTU21D;63664;44.868;40.600;2023-03-26T05:54:27;11.54;103.94
75088;HTU21D;63664;44.868;40.600;2023-03-26T05:57:19;11.53;103.91
75088;HTU21D;63664;44.868;40.600;2023-03-26T06:00:07;11.53;103.94
75088;HTU21D;63664;44.868;40.600;2023-03-26T06:02:47;11.53;103.99
75088;HTU21D;63664;44.868;40.600;2023-03-26T06:05:38;11.54;103.99
75088;HTU21D;63664;44.868;40.600;2023-03-26T06:08:11;11.52;104.05
75088;HTU21D;63664;44.868;40.600;2023-03-26T06:10:41;11.52;104.16
75088;HTU21D;63664;44.868;40.600;2023-03-26T06:13:12;11.55;104.15
75088;HTU21D;63664;44.868;40.600;2023-03-26T06:15:42;11.56;104.22
75088;HTU21D;63664;44.868;40.600;2023-03-26T06:18:29;11.56;104.12
75088;HTU21D;63664;44.868;40.600;2023-03-26T06:21:18;11.55;104.12
75088;HTU21D;63664;44.868;40.600;2023-03-26T06:23:49;11.52;104.21
75088;HTU21D;63664;44.868;40.600;2023-03-26T06:26:37;11.52;104.29
75088;HTU21D;63664;44.868;40.600;2023-03-26T06:29:25;11.53;104.27
75088;HTU21D;63664;44.868;40.600;2023-03-26T06:32:06;11.51;104.32
75088;HTU21D;63664;44.868;40.600;2023-03-26T06:34:41;11.51;104.39
75088;HTU21D;63664;44.868;40.600;2023-03-26T06:37:08;11.48;104.45
75088;HTU21D;63664;44.868;40.600;2023-03-26T06:39:43;11.49;104.53
75088;HTU21D;63664;44.868;40.600;2023-03-26T06:42:17;11.47;104.54
75088;HTU21D;63664;44.868;40.600;2023-03-26T06:45:02;11.45;104.61
75088;HTU21D;63664;44.868;40.600;2023-03-26T06:47:50;11.44;104.63
75088;HTU21D;63664;44.868;40.600;2023-03-26T06:51:00;11.44;104.51
75088;HTU21D;63664;44.868;40.600;2023-03-26T06:53:52;11.41;104.33
75088;HTU21D;63664;44.868;40.600;2023-03-26T06:56:47;11.39;104.44
75088;HTU21D;63664;44.868;40.600;2023-03-26T06:59:39;11.38;104.51
75088;HTU21D;63664;44.868;40.600;2023-03-26T07:02:29;11.41;104.61
75088;HTU21D;63664;44.868;40.600;2023-03-26T07:05:14;11.42;104.59
75088;HTU21D;63664;44.868;40.600;2023-03-26T07:07:58;11.43;104.61
75088;HTU21D;63664;44.868;40.600;2023-03-26T07:10:43;11.45;104.65
75088;HTU21D;63664;44.868;40.600;2023-03-26T07:13:36;11.47;104.63
75088;HTU21D;63664;44.868;40.600;2023-03-26T07:16:21;11.48;104.65
75088;HTU21D;63664;44.868;40.600;2023-03-26T07:19:15;11.51;104.65
75088;HTU21D;63664;44.868;40.600;2023-03-26T07:21:44;11.52;104.66
75088;HTU21D;63664;44.868;40.600;2023-03-26T07:24:53;11.53;104.63
75088;HTU21D;63664;44.868;40.600;2023-03-26T07:27:58;11.53;104.63
75088;HTU21D;63664;44.868;40.600;2023-03-26T07:31:17;11.54;104.61
75088;HTU21D;63664;44.868;40.600;2023-03-26T07:34:29;11.56;104.52
75088;HTU21D;63664;44.868;40.600;2023-03-26T07:43:49;11.56;104.28
75088;HTU21D;63664;44.868;40.600;2023-03-26T07:46:49;11.58;104.21
75088;HTU21D;63664;44.868;40.600;2023-03-26T07:49:44;11.62;104.24
75088;HTU21D;63664;44.868;40.600;2023-03-26T07:52:28;11.66;104.24
75088;HTU21D;63664;44.868;40.600;2023-03-26T07:55:14;11.70;104.14
75088;HTU21D;63664;44.868;40.600;2023-03-26T08:16:08;11.99;103.72
75088;HTU21D;63664;44.868;40.600;2023-03-26T08:19:41;12.02;103.71
75088;HTU21D;63664;44.868;40.600;2023-03-26T08:21:55;12.07;103.62
75088;HTU21D;63664;44.868;40.600;2023-03-26T08:27:27;12.14;103.56
75088;HTU21D;63664;44.868;40.600;2023-03-26T08:32:31;12.14;103.56
75088;HTU21D;63664;44.868;40.600;2023-03-26T08:34:57;12.14;103.50
75088;HTU21D;63664;44.868;40.600;2023-03-26T08:37:27;12.18;103.62
75088;HTU21D;63664;44.868;40.600;2023-03-26T08:39:54;12.22;103.55
75088;HTU21D;63664;44.868;40.600;2023-03-26T08:48:36;12.30;103.36
75088;HTU21D;63664;44.868;40.600;2023-03-26T09:30:50;13.35;100.86
75088;HTU21D;63664;44.868;40.600;2023-03-26T09:38:38;13.38;100.63
75088;HTU21D;63664;44.868;40.600;2023-03-26T09:41:14;13.40;100.57
75088;HTU21D;63664;44.868;40.600;2023-03-26T09:50:00;13.44;100.30
75088;HTU21D;63664;44.868;40.600;2023-03-26T09:58:29;13.47;100.19
75088;HTU21D;63664;44.868;40.600;2023-03-26T10:01:23;13.51;100.12
75088;HTU21D;63664;44.868;40.600;2023-03-26T10:04:44;13.54;100.05
75088;HTU21D;63664;44.868;40.600;2023-03-26T10:06:52;13.56;100.12
75088;HTU21D;63664;44.868;40.600;2023-03-26T10:12:37;13.61;100.13
75088;HTU21D;63664;44.868;40.600;2023-03-26T10:15:42;13.64;100.10
75088;HTU21D;63664;44.868;40.600;2023-03-26T10:24:10;13.64;100.14
75088;HTU21D;63664;44.868;40.600;2023-03-26T10:30:14;13.63;100.05
75088;HTU21D;63664;44.868;40.600;2023-03-26T10:36:29;13.65;100.14
75088;HTU21D;63664;44.868;40.600;2023-03-26T10:47:18;13.62;100.10
75088;HTU21D;63664;44.868;40.600;2023-03-26T10:52:38;13.55;100.27
75088;HTU21D;63664;44.868;40.600;2023-03-26T10:55:36;13.53;100.49
75088;HTU21D;63664;44.868;40.600;2023-03-26T10:58:27;13.47;100.59
75088;HTU21D;63664;44.868;40.600;2023-03-26T11:01:03;13.41;100.65
75088;HTU21D;63664;44.868;40.600;2023-03-26T11:06:39;13.36;100.85
75088;HTU21D;63664;44.868;40.600;2023-03-26T11:09:21;13.36;100.77
75088;HTU21D;63664;44.868;40.600;2023-03-26T11:14:33;13.41;100.73
75088;HTU21D;63664;44.868;40.600;2023-03-26T11:25:02;13.35;100.77
75088;HTU21D;63664;44.868;40.600;2023-03-26T11:28:15;13.33;100.77
75088;HTU21D;63664;44.868;40.600;2023-03-26T11:33:04;13.31;100.75
75088;HTU21D;63664;44.868;40.600;2023-03-26T11:35:38;13.30;100.74
75088;HTU21D;63664;44.868;40.600;2023-03-26T11:38:16;13.26;100.74
75088;HTU21D;63664;44.868;40.600;2023-03-26T11:40:51;13.26;100.80
75088;HTU21D;63664;44.868;40.600;2023-03-26T11:43:54;13.26;100.73
75088;HTU21D;63664;44.868;40.600;2023-03-26T11:46:22;13.26;100.74
75088;HTU21D;63664;44.868;40.600;2023-03-26T11:49:05;13.27;100.69
75088;HTU21D;63664;44.868;40.600;2023-03-26T11:51:38;13.26;100.63
75088;HTU21D;63664;44.868;40.600;2023-03-26T11:54:06;13.26;100.62
75088;HTU21D;63664;44.868;40.600;2023-03-26T11:59:32;13.33;100.58
75088;HTU21D;63664;44.868;40.600;2023-03-26T12:04:44;13.39;100.41
75088;HTU21D;63664;44.868;40.600;2023-03-26T12:07:33;13.43;100.37
75088;HTU21D;63664;44.868;40.600;2023-03-26T12:10:03;13.44;100.29
75088;HTU21D;63664;44.868;40.600;2023-03-26T12:12:32;13.45;100.25
75088;HTU21D;63664;44.868;40.600;2023-03-26T12:15:02;13.44;100.16
75088;HTU21D;63664;44.868;40.600;2023-03-26T12:17:34;13.44;100.12
75088;HTU21D;63664;44.868;40.600;2023-03-26T12:20:01;13.51;100.10
75088;HTU21D;63664;44.868;40.600;2023-03-26T12:22:48;13.66;99.80
75088;HTU21D;63664;44.868;40.600;2023-03-26T12:25:31;13.79;99.48
75088;HTU21D;63664;44.868;40.600;2023-03-26T12:28:00;13.83;99.13
75088;HTU21D;63664;44.868;40.600;2023-03-26T12:30:32;13.86;99.05
75088;HTU21D;63664;44.868;40.600;2023-03-26T12:33:05;13.91;98.97
75088;HTU21D;63664;44.868;40.600;2023-03-26T12:35:34;13.91;98.87
75088;HTU21D;63664;44.868;40.600;2023-03-26T12:41:12;13.97;98.68
75088;HTU21D;63664;44.868;40.600;2023-03-26T12:43:46;13.98;98.55
75088;HTU21D;63664;44.868;40.600;2023-03-26T12:48:54;13.93;98.45
75088;HTU21D;63664;44.868;40.600;2023-03-26T12:57:30;14.00;98.02
75088;HTU21D;63664;44.868;40.600;2023-03-26T13:06:13;14.40;96.88
75088;HTU21D;63664;44.868;40.600;2023-03-26T13:09:19;14.55;96.41
75088;HTU21D;63664;44.868;40.600;2023-03-26T13:14:55;14.58;96.16
75088;HTU21D;63664;44.868;40.600;2023-03-26T13:23:20;14.58;95.94
75088;HTU21D;63664;44.868;40.600;2023-03-26T13:26:01;14.54;95.68
75088;HTU21D;63664;44.868;40.600;2023-03-26T13:34:26;14.33;95.72
75088;HTU21D;63664;44.868;40.600;2023-03-26T13:42:32;14.19;95.74
75088;HTU21D;63664;44.868;40.600;2023-03-26T13:47:49;14.21;95.43
75088;HTU21D;63664;44.868;40.600;2023-03-26T13:50:28;14.22;95.30
75088;HTU21D;63664;44.868;40.600;2023-03-26T13:53:01;14.21;95.22
75088;HTU21D;63664;44.868;40.600;2023-03-26T13:55:41;14.19;95.13
75088;HTU21D;63664;44.868;40.600;2023-03-26T13:58:40;14.21;95.17
75088;HTU21D;63664;44.868;40.600;2023-03-26T14:01:46;14.22;94.99
75088;HTU21D;63664;44.868;40.600;2023-03-26T14:04:32;14.24;94.88
75088;HTU21D;63664;44.868;40.600;2023-03-26T14:37:06;14.22;94.53
75088;HTU21D;63664;44.868;40.600;2023-03-26T14:50:44;14.22;94.04
75088;HTU21D;63664;44.868;40.600;2023-03-26T14:53:32;14.17;94.01
75088;HTU21D;63664;44.868;40.600;2023-03-26T14:56:30;14.11;94.07
75088;HTU21D;63664;44.868;40.600;2023-03-26T15:07:46;13.92;94.37
75088;HTU21D;63664;44.868;40.600;2023-03-26T15:10:45;13.85;94.37
75088;HTU21D;63664;44.868;40.600;2023-03-26T15:22:11;13.61;94.70
75088;HTU21D;63664;44.868;40.600;2023-03-26T15:45:32;12.93;95.73
75088;HTU21D;63664;44.868;40.600;2023-03-26T15:50:58;12.73;96.01
75088;HTU21D;63664;44.868;40.600;2023-03-26T16:15:30;12.08;97.06
75088;HTU21D;63664;44.868;40.600;2023-03-26T16:33:57;11.59;98.36
75088;HTU21D;63664;44.868;40.600;2023-03-26T16:36:37;11.53;98.39
75088;HTU21D;63664;44.868;40.600;2023-03-26T16:39:11;11.48;98.54
75088;HTU21D;63664;44.868;40.600;2023-03-26T16:55:42;11.16;99.13
75088;HTU21D;63664;44.868;40.600;2023-03-26T16:58:32;11.11;99.34
75088;HTU21D;63664;44.868;40.600;2023-03-26T17:03:57;11.02;99.60
75088;HTU21D;63664;44.868;40.600;2023-03-26T17:18:00;10.87;100.03
75088;HTU21D;63664;44.868;40.600;2023-03-26T17:24:00;10.80;100.24
75088;HTU21D;63664;44.868;40.600;2023-03-26T17:26:57;10.77;100.28
75088;HTU21D;63664;44.868;40.600;2023-03-26T17:29:31;10.73;100.36
75088;HTU21D;63664;44.868;40.600;2023-03-26T17:32:11;10.71;100.50
75088;HTU21D;63664;44.868;40.600;2023-03-26T17:34:54;10.70;100.74
75088;HTU21D;63664;44.868;40.600;2023-03-26T17:43:09;10.66;100.90
75088;HTU21D;63664;44.868;40.600;2023-03-26T17:45:38;10.63;100.81
75088;HTU21D;63664;44.868;40.600;2023-03-26T17:48:19;10.56;100.93
75088;HTU21D;63664;44.868;40.600;2023-03-26T17:50:58;10.53;101.04
75088;HTU21D;63664;44.868;40.600;2023-03-26T17:53:31;10.52;101.15
75088;HTU21D;63664;44.868;40.600;2023-03-26T17:56:10;10.50;101.17
75088;HTU21D;63664;44.868;40.600;2023-03-26T17:58:44;10.48;101.28
75088;HTU21D;63664;44.868;40.600;2023-03-26T18:01:33;10.45;101.37
75088;HTU21D;63664;44.868;40.600;2023-03-26T18:04:05;10.43;101.43
75088;HTU21D;63664;44.868;40.600;2023-03-26T18:17:07;10.26;101.78
75088;HTU21D;63664;44.868;40.600;2023-03-26T18:19:54;10.22;101.85
75088;HTU21D;63664;44.868;40.600;2023-03-26T18:22:34;10.18;101.75
75088;HTU21D;63664;44.868;40.600;2023-03-26T18:25:03;10.11;101.73
75088;HTU21D;63664;44.868;40.600;2023-03-26T18:27:39;10.04;101.86
75088;HTU21D;63664;44.868;40.600;2023-03-26T18:30:24;9.96;101.95
75088;HTU21D;63664;44.868;40.600;2023-03-26T18:33:01;9.92;102.00
75088;HTU21D;63664;44.868;40.600;2023-03-26T18:35:44;9.85;101.98
75088;HTU21D;63664;44.868;40.600;2023-03-26T18:38:30;9.81;102.09
75088;HTU21D;63664;44.868;40.600;2023-03-26T18:40:59;9.77;102.01
75088;HTU21D;63664;44.868;40.600;2023-03-26T18:43:26;9.70;102.09
75088;HTU21D;63664;44.868;40.600;2023-03-26T18:45:53;9.67;102.09
75088;HTU21D;63664;44.868;40.600;2023-03-26T18:48:22;9.65;102.06
75088;HTU21D;63664;44.868;40.600;2023-03-26T18:50:58;9.64;102.02
75088;HTU21D;63664;44.868;40.600;2023-03-26T18:53:28;9.63;101.99
75088;HTU21D;63664;44.868;40.600;2023-03-26T18:55:56;9.63;101.95
75088;HTU21D;63664;44.868;40.600;2023-03-26T18:58:34;9.60;101.98
75088;HTU21D;63664;44.868;40.600;2023-03-26T19:01:08;9.55;102.02
75088;HTU21D;63664;44.868;40.600;2023-03-26T19:03:38;9.52;102.06
75088;HTU21D;63664;44.868;40.600;2023-03-26T19:06:07;9.49;102.12
75088;HTU21D;63664;44.868;40.600;2023-03-26T19:08:40;9.41;102.16
75088;HTU21D;63664;44.868;40.600;2023-03-26T19:11:11;9.34;102.22
75088;HTU21D;63664;44.868;40.600;2023-03-26T19:13:41;9.27;102.37
75088;HTU21D;63664;44.868;40.600;2023-03-26T19:16:24;9.27;102.57
75088;HTU21D;63664;44.868;40.600;2023-03-26T19:18:51;9.29;102.52
75088;HTU21D;63664;44.868;40.600;2023-03-26T19:21:20;9.30;102.56
75088;HTU21D;63664;44.868;40.600;2023-03-26T19:23:53;9.31;102.59
75088;HTU21D;63664;44.868;40.600;2023-03-26T19:26:22;9.30;102.59
75088;HTU21D;63664;44.868;40.600;2023-03-26T19:28:51;9.30;102.67
75088;HTU21D;63664;44.868;40.600;2023-03-26T19:31:25;9.29;102.76
75088;HTU21D;63664;44.868;40.600;2023-03-26T19:33:58;9.26;102.81
75088;HTU21D;63664;44.868;40.600;2023-03-26T19:36:28;9.24;102.74
75088;HTU21D;63664;44.868;40.600;2023-03-26T19:41:51;9.22;102.95
75088;HTU21D;63664;44.868;40.600;2023-03-26T19:44:28;9.21;102.97
75088;HTU21D;63664;44.868;40.600;2023-03-26T19:47:15;9.20;103.02
75088;HTU21D;63664;44.868;40.600;2023-03-26T19:52:32;9.21;103.08
75088;HTU21D;63664;44.868;40.600;2023-03-26T19:55:18;9.22;103.13
75088;HTU21D;63664;44.868;40.600;2023-03-26T19:57:49;9.22;103.05
75088;HTU21D;63664;44.868;40.600;2023-03-26T20:00:18;9.23;103.15
75088;HTU21D;63664;44.868;40.600;2023-03-26T20:02:49;9.22;103.26
75088;HTU21D;63664;44.868;40.600;2023-03-26T20:05:28;9.21;103.31
75088;HTU21D;63664;44.868;40.600;2023-03-26T20:07:57;9.22;103.31
75088;HTU21D;63664;44.868;40.600;2023-03-26T20:10:25;9.20;103.35
75088;HTU21D;63664;44.868;40.600;2023-03-26T20:12:54;9.19;103.41
75088;HTU21D;63664;44.868;40.600;2023-03-26T20:15:25;9.20;103.42
75088;HTU21D;63664;44.868;40.600;2023-03-26T20:17:53;9.19;103.50
75088;HTU21D;63664;44.868;40.600;2023-03-26T20:20:21;9.19;103.50
75088;HTU21D;63664;44.868;40.600;2023-03-26T20:22:53;9.18;103.53
75088;HTU21D;63664;44.868;40.600;2023-03-26T20:25:25;9.14;103.48
75088;HTU21D;63664;44.868;40.600;2023-03-26T20:27:53;9.10;103.47
75088;HTU21D;63664;44.868;40.600;2023-03-26T20:30:21;9.06;103.57
75088;HTU21D;63664;44.868;40.600;2023-03-26T20:32:47;9.03;103.49
75088;HTU21D;63664;44.868;40.600;2023-03-26T20:35:23;9.00;103.47
75088;HTU21D;63664;44.868;40.600;2023-03-26T20:37:53;8.97;103.49
75088;HTU21D;63664;44.868;40.600;2023-03-26T20:40:25;8.97;103.50
75088;HTU21D;63664;44.868;40.600;2023-03-26T20:42:53;8.95;103.41
75088;HTU21D;63664;44.868;40.600;2023-03-26T20:45:22;8.91;103.48
75088;HTU21D;63664;44.868;40.600;2023-03-26T20:47:51;8.90;103.49
75088;HTU21D;63664;44.868;40.600;2023-03-26T20:50:23;8.88;103.51
75088;HTU21D;63664;44.868;40.600;2023-03-26T20:52:51;8.87;103.49
75088;HTU21D;63664;44.868;40.600;2023-03-26T20:55:21;8.85;103.47
75088;HTU21D;63664;44.868;40.600;2023-03-26T20:57:48;8.82;103.49
75088;HTU21D;63664;44.868;40.600;2023-03-26T21:00:17;8.81;103.50
75088;HTU21D;63664;44.868;40.600;2023-03-26T21:02:51;8.79;103.49
75088;HTU21D;63664;44.868;40.600;2023-03-26T21:05:27;8.76;103.44
75088;HTU21D;63664;44.868;40.600;2023-03-26T21:07:56;8.75;103.46
75088;HTU21D;63664;44.868;40.600;2023-03-26T21:10:26;8.74;103.45
75088;HTU21D;63664;44.868;40.600;2023-03-26T21:12:56;8.72;103.45
75088;HTU21D;63664;44.868;40.600;2023-03-26T21:15:24;8.68;103.50
75088;HTU21D;63664;44.868;40.600;2023-03-26T21:17:51;8.63;103.50
75088;HTU21D;63664;44.868;40.600;2023-03-26T21:20:21;8.55;103.48
75088;HTU21D;63664;44.868;40.600;2023-03-26T21:26:08;8.41;103.46
75088;HTU21D;63664;44.868;40.600;2023-03-26T21:28:49;8.32;103.41
75088;HTU21D;63664;44.868;40.600;2023-03-26T21:31:16;8.26;103.44
75088;HTU21D;63664;44.868;40.600;2023-03-26T21:33:47;8.21;103.47
75088;HTU21D;63664;44.868;40.600;2023-03-26T21:36:21;8.20;103.55
75088;HTU21D;63664;44.868;40.600;2023-03-26T21:38:48;8.23;103.50
75088;HTU21D;63664;44.868;40.600;2023-03-26T21:44:06;8.29;103.47
75088;HTU21D;63664;44.868;40.600;2023-03-26T21:46:34;8.31;103.51
75088;HTU21D;63664;44.868;40.600;2023-03-26T21:49:02;8.35;103.51
75088;HTU21D;63664;44.868;40.600;2023-03-26T21:51:28;8.36;103.57
75088;HTU21D;63664;44.868;40.600;2023-03-26T21:53:55;8.33;103.60
75088;HTU21D;63664;44.868;40.600;2023-03-26T22:02:11;8.30;103.73
75088;HTU21D;63664;44.868;40.600;2023-03-26T22:09:56;8.34;103.78
75088;HTU21D;63664;44.868;40.600;2023-03-26T22:12:22;8.33;103.76
75088;HTU21D;63664;44.868;40.600;2023-03-26T22:14:51;8.31;103.73
75088;HTU21D;63664;44.868;40.600;2023-03-26T22:17:19;8.26;103.80